Terminal Aerodrome Forecast
Issued by NWS

Home | Current Version | Previous Version | Text Only | Print | Product List | Glossary On
Versions: 1 2 3 4 5 6 7 8 9 10 11 12 13 14 15
000
FTUS45 KTFX 281151 CCA
TAFLWT
TAF COR
KLWT 281151Z 2812/2912 27008KT P6SM BKN090
     FM281900 34009KT P6SM VCTS BKN050CB PROB30 2821/2901 TSRA
      BKN035CB
     FM290300 VRB05KT P6SM -SHRA SCT015 BKN030=

USA.gov is the U.S. government's official web portal to all federal, state and local government web resources and services.